Time;durP1;ratioP1;P1;durP2;ratioP2;P2;SDS_P1;SDS_P2;PMS_P1;PMS_P2;Temp;Humidity;BMP_temperature;BMP_pressure;BME280_temperature;BME280_humidity;BME280_pressure;Samples;Min_cycle;Max_cycle;Signal;HPM_P1;HPM_P2
2022/09/25 00:00:21;;;;;;;10.90;1.77;;;12.30;99.90;;;;;;5054518;28;20491;-80
2022/09/25 00:02:47;;;;;;;4.93;1.67;;;12.30;99.90;;;;;;5054130;28;20067;-80
2022/09/25 00:05:12;;;;;;;3.88;1.20;;;12.20;99.90;;;;;;5037490;28;20473;-80
2022/09/25 00:07:38;;;;;;;10.73;1.17;;;12.20;99.90;;;;;;5037604;28;20054;-80
2022/09/25 00:10:04;;;;;;;4.82;1.15;;;12.20;99.90;;;;;;5037553;28;20031;-80
2022/09/25 00:12:29;;;;;;;6.93;1.10;;;12.20;99.90;;;;;;5037707;28;20033;-80
2022/09/25 00:14:56;;;;;;;6.75;1.38;;;12.20;99.90;;;;;;5052356;28;20032;-80
2022/09/25 00:17:22;;;;;;;9.60;1.60;;;12.20;99.90;;;;;;5037234;28;20036;-80
2022/09/25 00:19:50;;;;;;;7.75;1.67;;;12.20;99.90;;;;;;5037072;28;20381;-79
2022/09/25 00:22:21;;;;;;;6.85;1.13;;;12.20;99.90;;;;;;5037601;28;20029;-80
2022/09/25 00:24:47;;;;;;;8.05;1.60;;;12.20;99.90;;;;;;5053662;28;20025;-80
2022/09/25 00:27:13;;;;;;;4.88;1.50;;;12.10;99.90;;;;;;5037034;28;20426;-80
2022/09/25 00:29:39;;;;;;;7.18;1.40;;;12.10;99.90;;;;;;5053556;28;20120;-80
2022/09/25 00:32:07;;;;;;;8.07;2.05;;;12.00;99.90;;;;;;5053554;28;20100;-80
2022/09/25 00:34:33;;;;;;;4.82;1.95;;;12.00;99.90;;;;;;5053518;28;20090;-80
2022/09/25 00:36:59;;;;;;;7.63;1.77;;;12.00;99.90;;;;;;5037141;28;20029;-79
2022/09/25 00:39:25;;;;;;;7.10;1.95;;;12.00;99.90;;;;;;5037541;28;20404;-80
2022/09/25 00:41:51;;;;;;;10.15;1.95;;;12.00;99.90;;;;;;5053268;28;20059;-79
2022/09/25 00:44:59;;;;;;;15.80;1.98;;;11.90;99.90;;;;;;5032564;28;20121;-80
2022/09/25 00:47:37;;;;;;;8.15;1.58;;;11.90;99.90;;;;;;5031227;28;20512;-79
2022/09/25 00:50:11;;;;;;;4.45;1.10;;;11.90;99.90;;;;;;5031311;28;20033;-80
2022/09/25 00:52:37;;;;;;;5.22;1.10;;;11.80;99.90;;;;;;5052983;28;20033;-80
2022/09/25 00:55:06;;;;;;;5.53;1.75;;;11.80;99.90;;;;;;5052616;28;20045;-80
2022/09/25 00:57:34;;;;;;;6.25;1.52;;;11.80;99.90;;;;;;5053131;28;20017;-80
2022/09/25 01:00:10;;;;;;;3.72;1.20;;;11.70;99.90;;;;;;5052916;28;20115;-80
2022/09/25 01:02:40;;;;;;;6.07;1.15;;;11.70;99.90;;;;;;5052956;28;20028;-80
2022/09/25 01:05:09;;;;;;;9.77;2.08;;;11.70;99.90;;;;;;5035564;28;20021;-80
2022/09/25 01:07:39;;;;;;;8.70;1.42;;;11.60;99.90;;;;;;5054263;28;20508;-80
2022/09/25 01:10:07;;;;;;;7.60;1.63;;;11.60;99.90;;;;;;5053431;28;20112;-86
2022/09/25 01:12:35;;;;;;;7.63;1.30;;;11.60;99.90;;;;;;5053366;28;20028;-86
2022/09/25 01:15:01;;;;;;;5.22;1.10;;;11.50;99.90;;;;;;5036823;28;20175;-86
2022/09/25 01:17:44;;;;;;;6.10;1.52;;;11.50;99.90;;;;;;5036644;28;20119;-87
2022/09/25 01:20:19;;;;;;;7.15;1.60;;;11.50;99.90;;;;;;5036847;28;20082;-86
2022/09/25 01:23:21;;;;;;;5.47;1.40;;;11.50;99.90;;;;;;5053625;28;20028;-86
2022/09/25 01:25:53;;;;;;;9.82;1.25;;;11.50;99.90;;;;;;5053201;28;20033;-87
2022/09/25 01:28:38;;;;;;;7.20;1.80;;;11.40;99.90;;;;;;5053129;28;20120;-86
2022/09/25 01:31:15;;;;;;;4.82;1.10;;;11.40;99.90;;;;;;5053214;28;20037;-86
2022/09/25 01:33:50;;;;;;;6.40;1.30;;;11.30;99.90;;;;;;5052938;28;20048;-86
2022/09/25 01:36:21;;;;;;;5.50;1.30;;;11.30;99.90;;;;;;5053074;28;20071;-86
2022/09/25 01:38:51;;;;;;;5.28;1.67;;;11.30;99.90;;;;;;5052916;28;20395;-86
2022/09/25 01:41:22;;;;;;;4.88;2.13;;;11.30;99.90;;;;;;5052925;28;20021;-86
2022/09/25 01:44:12;;;;;;;6.68;2.03;;;11.20;99.90;;;;;;5053228;28;20033;-86
2022/09/25 01:46:46;;;;;;;4.43;1.60;;;11.20;99.90;;;;;;5052978;28;20025;-86
2022/09/25 01:49:27;;;;;;;;;;;11.20;99.90;;;;;;5053220;28;20021;-87
2022/09/25 01:51:54;;;;;;;9.45;1.42;;;11.20;99.90;;;;;;5053293;28;19904;-86
2022/09/25 01:54:27;;;;;;;6.63;1.73;;;11.10;99.90;;;;;;5052461;28;20041;-86
2022/09/25 01:57:04;;;;;;;10.20;1.80;;;11.00;99.90;;;;;;5053911;28;20074;-86
2022/09/25 01:59:47;;;;;;;4.10;1.57;;;11.00;99.90;;;;;;5054001;28;20388;-86
2022/09/25 02:02:18;;;;;;;6.45;1.73;;;11.00;99.90;;;;;;5052684;28;20465;-86
2022/09/25 02:04:58;;;;;;;9.67;1.80;;;11.00;99.90;;;;;;5052661;28;20437;-86
2022/09/25 02:07:29;;;;;;;6.70;1.57;;;10.90;99.90;;;;;;5052669;28;20028;-86
2022/09/25 02:10:00;;;;;;;8.43;2.22;;;11.00;99.90;;;;;;5052513;28;20032;-86
2022/09/25 02:12:33;;;;;;;4.90;1.60;;;10.90;99.90;;;;;;5052495;28;20119;-86
2022/09/25 02:15:12;;;;;;;5.43;1.13;;;10.90;99.90;;;;;;5054181;28;20017;-86
2022/09/25 02:20:41;;;;;;;7.87;1.80;;;10.90;99.90;;;;;;5060687;28;20040;-86
2022/09/25 02:23:26;;;;;;;7.80;1.88;;;10.80;99.90;;;;;;5042861;28;20029;-86
2022/09/25 02:26:15;;;;;;;7.27;1.83;;;10.80;99.90;;;;;;5059348;28;20029;-85
2022/09/25 02:28:42;;;;;;;7.55;1.65;;;10.80;99.90;;;;;;5059576;28;20028;-86
2022/09/25 02:31:10;;;;;;;6.33;2.27;;;10.80;99.90;;;;;;5059077;28;20020;-86
2022/09/25 02:33:37;;;;;;;6.17;1.53;;;10.70;99.90;;;;;;5058956;28;20025;-86
2022/09/25 02:36:04;;;;;;;6.45;2.13;;;10.70;99.90;;;;;;5042599;28;20025;-86
2022/09/25 02:38:32;;;;;;;4.67;1.50;;;10.70;99.90;;;;;;5059040;28;20021;-86
2022/09/25 02:41:14;;;;;;;8.20;1.90;;;10.70;99.90;;;;;;5058775;28;20069;-86
2022/09/25 02:44:16;;;;;;;5.20;1.73;;;10.60;99.90;;;;;;5058642;28;20055;-86
2022/09/25 02:47:12;;;;;;;6.20;1.70;;;10.60;99.90;;;;;;5059088;28;20029;-86
2022/09/25 02:49:48;;;;;;;8.57;1.70;;;10.60;99.90;;;;;;5029542;28;20489;-80
2022/09/25 02:52:26;;;;;;;7.57;2.03;;;10.60;99.90;;;;;;5041674;28;20080;-79
2022/09/25 02:55:07;;;;;;;4.90;1.77;;;10.50;99.90;;;;;;5058225;28;20037;-80
2022/09/25 02:57:57;;;;;;;5.13;1.80;;;10.50;99.90;;;;;;5041475;28;20024;-79
2022/09/25 03:00:23;;;;;;;6.17;2.07;;;10.50;99.90;;;;;;5058099;28;20063;-80
2022/09/25 03:02:56;;;;;;;7.87;1.60;;;10.50;99.90;;;;;;5041582;28;20434;-79
2022/09/25 03:05:23;;;;;;;7.50;1.50;;;10.50;99.90;;;;;;5058224;28;20036;-79
2022/09/25 03:10:36;;;;;;;8.67;2.10;;;10.40;99.90;;;;;;5044469;28;20496;-80
2022/09/25 03:13:21;;;;;;;6.17;1.37;;;10.40;99.90;;;;;;5041498;28;20021;-80
2022/09/25 03:15:51;;;;;;;;;;;10.30;99.90;;;;;;5058444;28;20024;-80
2022/09/25 03:18:17;;;;;;;5.10;1.43;;;10.40;99.90;;;;;;5058144;28;19939;-80
2022/09/25 03:20:43;;;;;;;13.43;1.97;;;10.40;99.90;;;;;;5041430;28;20024;-80
2022/09/25 03:23:10;;;;;;;12.37;3.00;;;10.30;99.90;;;;;;5058112;28;20031;-79
2022/09/25 03:25:37;;;;;;;5.70;1.50;;;10.30;99.90;;;;;;5058127;28;20366;-80
2022/09/25 03:28:05;;;;;;;5.00;1.47;;;10.30;99.90;;;;;;5054361;28;20036;-80
2022/09/25 03:30:31;;;;;;;6.80;1.83;;;10.20;99.90;;;;;;5038881;28;20040;-80
2022/09/25 03:32:56;;;;;;;8.53;2.00;;;10.30;99.90;;;;;;5038694;28;20037;-87
2022/09/25 03:35:22;;;;;;;7.77;1.70;;;10.20;99.90;;;;;;5038801;28;20025;-86
2022/09/25 03:37:48;;;;;;;5.83;1.47;;;10.20;99.90;;;;;;5038650;28;20036;-87
2022/09/25 03:40:13;;;;;;;8.60;2.03;;;10.20;99.90;;;;;;5038784;28;20029;-86
2022/09/25 03:42:39;;;;;;;6.87;2.23;;;10.20;99.90;;;;;;5038363;28;20388;-86
2022/09/25 03:45:05;;;;;;;6.10;1.90;;;10.10;99.90;;;;;;5038819;28;20059;-87
2022/09/25 03:47:31;;;;;;;8.63;2.20;;;10.10;99.90;;;;;;5038248;28;20025;-86
2022/09/25 03:49:56;;;;;;;5.70;1.73;;;10.10;99.90;;;;;;5038266;28;20029;-86
2022/09/25 03:52:22;;;;;;;8.27;2.77;;;10.10;99.90;;;;;;5038316;28;20022;-86
2022/09/25 03:54:48;;;;;;;7.87;1.90;;;10.00;99.90;;;;;;5034774;28;20520;-86
2022/09/25 03:57:13;;;;;;;7.83;2.13;;;10.00;99.90;;;;;;5035432;28;20075;-86
2022/09/25 03:59:39;;;;;;;8.53;2.43;;;10.00;99.90;;;;;;5034824;28;20473;-86
2022/09/25 04:02:05;;;;;;;5.27;1.90;;;9.90;99.90;;;;;;5034991;28;20116;-87
2022/09/25 04:04:31;;;;;;;5.70;2.03;;;9.90;99.90;;;;;;5051508;28;20061;-87
2022/09/25 04:06:57;;;;;;;6.07;1.87;;;9.90;99.90;;;;;;5033059;28;20037;-86
2022/09/25 04:09:22;;;;;;;7.13;2.00;;;9.90;99.90;;;;;;5022098;28;20026;-87
2022/09/25 04:11:48;;;;;;;7.97;2.17;;;9.80;99.90;;;;;;4998446;28;20080;-86
2022/09/25 04:14:14;;;;;;;5.03;1.77;;;9.80;99.90;;;;;;4998293;28;20125;-86
2022/09/25 04:16:40;;;;;;;6.93;2.33;;;9.80;99.90;;;;;;4998347;28;20030;-86
2022/09/25 04:19:06;;;;;;;6.90;1.93;;;9.80;99.90;;;;;;5014737;28;20500;-87
2022/09/25 04:21:31;;;;;;;7.73;2.37;;;9.80;99.90;;;;;;4982221;28;20058;-86
2022/09/25 04:26:41;;;;;;;15.13;2.33;;;9.80;99.90;;;;;;5014992;28;20061;-87
2022/09/25 04:29:07;;;;;;;6.00;1.60;;;9.80;99.90;;;;;;4998288;28;20490;-86
2022/09/25 04:31:32;;;;;;;6.30;2.03;;;9.70;99.90;;;;;;4998215;28;20475;-87
2022/09/25 04:33:59;;;;;;;5.30;2.00;;;9.70;99.90;;;;;;5014274;28;20018;-87
2022/09/25 04:36:25;;;;;;;11.07;3.13;;;9.70;99.90;;;;;;4998465;28;20034;-87
2022/09/25 04:38:50;;;;;;;8.57;1.70;;;9.70;99.90;;;;;;5015351;28;20100;-88
2022/09/25 04:41:18;;;;;;;6.00;2.23;;;9.70;99.90;;;;;;5006337;28;20032;-86
2022/09/25 04:43:44;;;;;;;5.93;2.13;;;9.70;99.90;;;;;;5017692;28;20037;-87
2022/09/25 04:46:11;;;;;;;6.50;2.43;;;9.70;99.90;;;;;;5020227;28;20025;-87
2022/09/25 04:48:37;;;;;;;6.27;2.33;;;9.70;99.90;;;;;;5021281;28;20026;-85
2022/09/25 04:51:04;;;;;;;7.10;1.90;;;9.70;99.90;;;;;;5017379;28;20390;-85
2022/09/25 04:53:31;;;;;;;6.67;2.53;;;9.70;99.90;;;;;;5035019;28;20029;-85
2022/09/25 04:56:06;;;;;;;6.50;1.93;;;9.70;99.90;;;;;;5033712;28;20124;-85
2022/09/25 04:58:32;;;;;;;7.07;2.40;;;9.60;99.90;;;;;;5033809;28;20378;-85
2022/09/25 05:01:03;;;;;;;4.87;2.00;;;9.60;99.90;;;;;;5017327;28;20553;-86
2022/09/25 05:03:29;;;;;;;4.83;2.00;;;9.60;99.90;;;;;;5033692;28;20048;-86
2022/09/25 05:05:55;;;;;;;6.83;1.80;;;9.70;99.90;;;;;;5017288;28;20478;-86
2022/09/25 05:08:22;;;;;;;6.10;2.20;;;9.50;99.90;;;;;;5017625;28;20034;-87
2022/09/25 05:10:47;;;;;;;6.17;2.13;;;9.70;99.90;;;;;;5017320;28;20037;-86
2022/09/25 05:13:13;;;;;;;5.83;2.17;;;9.50;99.90;;;;;;5017062;28;20025;-86
2022/09/25 05:15:38;;;;;;;6.47;2.57;;;9.60;99.90;;;;;;5017495;28;20477;-86
2022/09/25 05:18:15;;;;;;;8.63;2.63;;;9.50;99.90;;;;;;5033431;28;20029;-86
2022/09/25 05:20:41;;;;;;;5.93;2.20;;;9.50;99.90;;;;;;5033464;28;20028;-86
2022/09/25 05:23:07;;;;;;;5.83;2.20;;;9.50;99.90;;;;;;5017209;28;20037;-86
2022/09/25 05:25:33;;;;;;;6.63;2.50;;;9.50;99.90;;;;;;5035565;28;20128;-85
2022/09/25 05:28:00;;;;;;;6.23;1.83;;;9.50;99.90;;;;;;5023963;28;20064;-87
2022/09/25 05:30:30;;;;;;;5.60;2.13;;;9.40;99.90;;;;;;5040744;28;20036;-86
2022/09/25 05:32:59;;;;;;;4.23;1.97;;;9.40;99.90;;;;;;5033231;28;20064;-86
2022/09/25 05:35:27;;;;;;;7.83;2.60;;;9.50;99.90;;;;;;5033368;28;20045;-86
2022/09/25 05:37:53;;;;;;;6.17;2.53;;;9.40;99.90;;;;;;5033240;28;20025;-86
2022/09/25 05:40:22;;;;;;;4.50;2.30;;;9.40;99.90;;;;;;5033027;28;20117;-85
2022/09/25 05:42:49;;;;;;;6.40;1.93;;;9.40;99.90;;;;;;5032969;28;20055;-86
2022/09/25 05:45:16;;;;;;;6.83;3.37;;;9.40;99.90;;;;;;5033329;28;20021;-85
2022/09/25 05:47:42;;;;;;;6.23;3.00;;;9.40;99.90;;;;;;5033474;28;20091;-86
2022/09/25 05:50:10;;;;;;;6.60;2.63;;;9.40;99.90;;;;;;5032518;28;20060;-86
2022/09/25 05:52:37;;;;;;;6.77;2.97;;;9.40;99.90;;;;;;5032709;28;20108;-86
2022/09/25 05:55:05;;;;;;;7.60;3.00;;;9.40;99.90;;;;;;5016226;28;20041;-86
2022/09/25 05:57:31;;;;;;;5.93;2.43;;;9.40;99.90;;;;;;5032993;28;20432;-86
2022/09/25 05:59:57;;;;;;;8.90;2.90;;;9.40;99.90;;;;;;5016523;28;20032;-86
2022/09/25 06:02:23;;;;;;;5.33;2.00;;;9.40;99.90;;;;;;5032664;28;20105;-86
2022/09/25 06:04:49;;;;;;;6.60;2.53;;;9.40;99.90;;;;;;5031527;28;20104;-87
2022/09/25 06:07:15;;;;;;;5.70;2.70;;;9.50;99.90;;;;;;5032652;28;20022;-87
2022/09/25 06:09:40;;;;;;;8.13;3.13;;;9.50;99.90;;;;;;5032688;28;20021;-86
2022/09/25 06:12:06;;;;;;;8.20;2.87;;;9.50;99.90;;;;;;5029829;28;20075;-86
2022/09/25 06:14:34;;;;;;;7.10;2.63;;;9.50;99.90;;;;;;5032610;28;20136;-86
2022/09/25 06:17:00;;;;;;;6.73;2.40;;;9.50;99.90;;;;;;5016116;28;20021;-86
2022/09/25 06:19:28;;;;;;;5.83;2.20;;;9.60;99.90;;;;;;5032809;28;20026;-87
2022/09/25 06:21:54;;;;;;;4.33;2.30;;;9.60;99.90;;;;;;5032350;28;20095;-80
2022/09/25 06:24:19;;;;;;;5.87;2.50;;;9.60;99.90;;;;;;5031982;28;20486;-80
2022/09/25 06:26:45;;;;;;;6.17;3.23;;;9.70;99.90;;;;;;5031965;28;20083;-80
2022/09/25 06:29:10;;;;;;;9.33;2.73;;;9.70;99.90;;;;;;5015579;28;20025;-80
2022/09/25 06:31:38;;;;;;;5.20;1.87;;;9.70;99.90;;;;;;5033225;28;20021;-81
2022/09/25 06:34:04;;;;;;;6.30;1.97;;;9.80;99.90;;;;;;5032115;28;20033;-79
2022/09/25 06:36:30;;;;;;;8.43;2.57;;;9.80;99.90;;;;;;5032161;28;20060;-80
2022/09/25 06:38:55;;;;;;;6.33;2.47;;;9.80;99.90;;;;;;5015541;28;20370;-80
2022/09/25 06:41:22;;;;;;;4.77;2.20;;;9.80;99.90;;;;;;5015239;28;20036;-79
2022/09/25 06:43:49;;;;;;;4.07;1.77;;;9.90;99.90;;;;;;5031634;28;20032;-79
2022/09/25 06:46:17;;;;;;;5.93;1.83;;;9.90;99.90;;;;;;5027679;28;20029;-79
2022/09/25 06:48:43;;;;;;;5.03;1.83;;;10.00;99.90;;;;;;5031766;28;20028;-79
2022/09/25 06:51:08;;;;;;;4.37;1.97;;;10.00;99.90;;;;;;5048219;28;20151;-79
2022/09/25 06:53:34;;;;;;;6.77;1.77;;;10.10;99.90;;;;;;5013713;28;20113;-80
2022/09/25 06:56:00;;;;;;;6.97;1.50;;;10.10;99.90;;;;;;4998795;28;20499;-80
2022/09/25 06:58:27;;;;;;;6.77;1.63;;;10.10;99.90;;;;;;5031137;28;20030;-80
2022/09/25 07:00:54;;;;;;;3.93;1.70;;;10.20;99.90;;;;;;5015184;28;20028;-79
2022/09/25 07:06:06;;;;;;;3.23;1.40;;;10.30;99.90;;;;;;5036729;28;20088;-80
2022/09/25 07:08:32;;;;;;;6.53;2.13;;;10.30;99.90;;;;;;5018803;28;20029;-79
2022/09/25 07:10:58;;;;;;;3.30;1.43;;;10.40;99.90;;;;;;5018817;28;20036;-80
2022/09/25 07:13:27;;;;;;;3.90;1.27;;;10.40;99.90;;;;;;5034983;28;20474;-80
2022/09/25 07:16:00;;;;;;;5.53;1.20;;;10.50;99.90;;;;;;5018705;28;20104;-80
2022/09/25 07:18:27;;;;;;;3.10;1.30;;;10.50;99.90;;;;;;5035126;28;20009;-81
2022/09/25 07:20:59;;;;;;;4.67;1.67;;;10.50;99.90;;;;;;5035142;28;20013;-80
2022/09/25 07:23:25;;;;;;;2.50;1.20;;;10.60;99.90;;;;;;5035456;28;20381;-80
2022/09/25 07:25:50;;;;;;;3.33;1.07;;;10.60;99.90;;;;;;5018604;28;20032;-79
2022/09/25 07:28:18;;;;;;;4.68;1.38;;;10.70;99.90;;;;;;5018502;28;20390;-79
2022/09/25 07:30:45;;;;;;;4.23;1.40;;;10.80;99.90;;;;;;5035026;28;20029;-80
2022/09/25 07:33:11;;;;;;;6.30;2.30;;;10.80;99.90;;;;;;5018364;28;20033;-79
2022/09/25 07:35:37;;;;;;;5.70;1.13;;;10.90;99.90;;;;;;5002296;28;20477;-79
2022/09/25 07:38:03;;;;;;;5.72;1.60;;;10.90;99.90;;;;;;5034747;28;20187;-79
2022/09/25 07:40:30;;;;;;;4.60;0.90;;;11.00;99.90;;;;;;5035860;28;20496;-80
2022/09/25 07:43:06;;;;;;;4.63;0.80;;;11.00;99.90;;;;;;5036272;28;20025;-80
2022/09/25 07:45:31;;;;;;;2.75;0.90;;;11.10;99.90;;;;;;5034423;28;20034;-80
2022/09/25 07:48:01;;;;;;;4.13;1.27;;;11.10;99.90;;;;;;5001803;28;20120;-81
2022/09/25 07:50:28;;;;;;;7.22;1.10;;;11.30;99.90;;;;;;5034776;28;20504;-86
2022/09/25 07:52:54;;;;;;;5.93;1.42;;;11.30;99.90;;;;;;5018350;28;20033;-86
2022/09/25 07:55:20;;;;;;;3.33;0.90;;;11.30;99.90;;;;;;5035368;28;20047;-86
2022/09/25 07:57:46;;;;;;;4.30;1.00;;;11.40;99.90;;;;;;5028217;28;20045;-86
2022/09/25 08:00:12;;;;;;;4.93;0.80;;;11.40;99.90;;;;;;5034887;28;20473;-86
2022/09/25 08:02:38;;;;;;;2.03;0.75;;;11.50;99.90;;;;;;5018244;28;20035;-86
2022/09/25 08:05:04;;;;;;;4.13;0.82;;;11.60;99.90;;;;;;5034810;28;20018;-86
2022/09/25 08:07:29;;;;;;;10.23;1.20;;;11.60;99.90;;;;;;5018199;28;20030;-86
2022/09/25 08:09:55;;;;;;;9.20;1.13;;;11.70;99.90;;;;;;5001904;28;20083;-85
2022/09/25 08:12:23;;;;;;;4.88;1.20;;;11.70;99.90;;;;;;5017833;28;20038;-86
2022/09/25 08:14:51;;;;;;;8.50;1.27;;;11.80;99.90;;;;;;5018161;28;20037;-85
2022/09/25 08:17:18;;;;;;;4.70;1.05;;;11.90;99.90;;;;;;5035496;28;20075;-85
2022/09/25 08:19:44;;;;;;;3.97;1.10;;;11.90;99.90;;;;;;5034288;28;20029;-86
2022/09/25 08:22:10;;;;;;;6.70;0.80;;;12.00;99.90;;;;;;5034226;28;20060;-85
2022/09/25 08:24:36;;;;;;;2.60;0.60;;;12.00;99.90;;;;;;5035554;28;20090;-86
2022/09/25 08:27:02;;;;;;;4.93;0.68;;;12.10;99.90;;;;;;5017933;28;20093;-86
2022/09/25 08:29:29;;;;;;;5.05;0.50;;;12.20;99.90;;;;;;5017732;28;20481;-87
2022/09/25 08:31:55;;;;;;;4.05;0.65;;;12.20;99.90;;;;;;5034128;28;20033;-87
2022/09/25 08:34:21;;;;;;;6.70;0.73;;;12.30;99.90;;;;;;5001211;28;20033;-87
2022/09/25 08:36:48;;;;;;;5.05;0.82;;;12.40;99.90;;;;;;5035626;28;20026;-87
2022/09/25 08:39:14;;;;;;;6.57;0.63;;;12.40;99.90;;;;;;5033983;28;20144;-85
2022/09/25 08:41:52;;;;;;;3.83;0.50;;;12.50;99.90;;;;;;5034488;28;20489;-88
2022/09/25 08:44:20;;;;;;;4.45;1.02;;;12.60;99.90;;;;;;5033804;28;20030;-87
2022/09/25 08:50:05;;;;;;;8.32;0.60;;;12.80;99.90;;;;;;5029506;28;20064;-86
2022/09/25 08:52:33;;;;;;;6.53;0.80;;;12.90;99.90;;;;;;5013896;28;20030;-85
2022/09/25 08:54:58;;;;;;;2.50;0.50;;;13.00;99.90;;;;;;5019064;28;20046;-86
2022/09/25 08:57:30;;;;;;;12.55;1.80;;;13.00;99.90;;;;;;5000911;28;20037;-86
2022/09/25 09:00:20;;;;;;;4.85;0.50;;;13.10;99.90;;;;;;5034499;28;20028;-84
2022/09/25 09:02:54;;;;;;;4.78;0.55;;;13.10;99.90;;;;;;5049889;28;20025;-85
2022/09/25 09:05:23;;;;;;;5.18;0.40;;;13.20;99.90;;;;;;5033543;28;20482;-85
2022/09/25 09:08:12;;;;;;;7.85;0.68;;;13.30;99.90;;;;;;5050008;28;20482;-85
2022/09/25 09:10:48;;;;;;;6.68;0.80;;;13.30;99.90;;;;;;5046741;28;20493;-85
2022/09/25 09:13:23;;;;;;;4.30;0.52;;;13.40;99.90;;;;;;5049849;28;20033;-86
2022/09/25 09:15:59;;;;;;;5.13;0.52;;;13.50;99.90;;;;;;5050733;28;20029;-86
2022/09/25 09:18:27;;;;;;;4.30;0.60;;;13.60;99.90;;;;;;5050459;28;20029;-86
2022/09/25 09:21:01;;;;;;;1.77;0.40;;;13.60;99.90;;;;;;5049857;28;20484;-86
2022/09/25 09:23:47;;;;;;;4.32;0.50;;;13.70;99.90;;;;;;5050304;28;20031;-87
2022/09/25 09:27:03;;;;;;;4.55;0.40;;;13.80;99.90;;;;;;5049355;28;20018;-86
2022/09/25 09:29:57;;;;;;;2.45;0.40;;;13.90;99.90;;;;;;5033603;28;20109;-86
2022/09/25 09:32:49;;;;;;;4.30;0.50;;;13.90;99.90;;;;;;5049569;28;20026;-86
2022/09/25 09:35:52;;;;;;;1.92;0.35;;;14.00;99.90;;;;;;5050110;28;20028;-86
2022/09/25 09:38:46;;;;;;;1.17;0.30;;;14.10;99.90;;;;;;5046419;28;20053;-86
2022/09/25 09:41:17;;;;;;;3.20;0.40;;;14.30;99.90;;;;;;5032386;28;20101;-86
2022/09/25 09:44:07;;;;;;;1.33;0.40;;;14.30;99.90;;;;;;5049200;28;20279;-85
2022/09/25 09:47:01;;;;;;;3.88;0.40;;;14.40;99.90;;;;;;5049789;28;20453;-86
2022/09/25 09:49:43;;;;;;;3.47;0.50;;;14.50;99.60;;;;;;5049464;28;20021;-87
2022/09/25 09:52:17;;;;;;;1.77;0.30;;;14.80;99.50;;;;;;5049258;28;20488;-84
2022/09/25 09:54:49;;;;;;;4.25;0.50;;;15.00;98.90;;;;;;5048371;28;20067;-84
2022/09/25 09:57:23;;;;;;;7.65;0.70;;;15.30;97.80;;;;;;5046730;28;20018;-85
2022/09/25 09:59:54;;;;;;;2.40;0.55;;;15.70;97.10;;;;;;5049655;28;20436;-86
2022/09/25 10:02:38;;;;;;;3.83;0.40;;;16.20;97.20;;;;;;5049426;28;20059;-86
2022/09/25 10:05:11;;;;;;;1.80;0.40;;;16.80;96.70;;;;;;5048989;28;20377;-87
2022/09/25 10:07:40;;;;;;;2.55;0.60;;;17.50;96.00;;;;;;5048804;28;20037;-88
2022/09/25 10:10:14;;;;;;;4.57;0.50;;;18.20;95.50;;;;;;5049052;28;20108;-83
2022/09/25 10:12:43;;;;;;;1.65;0.20;;;19.10;94.30;;;;;;5048728;28;20397;-83
2022/09/25 10:15:26;;;;;;;2.38;0.45;;;19.90;92.70;;;;;;5048916;28;20477;-85
2022/09/25 10:17:53;;;;;;;1.70;0.40;;;20.70;89.70;;;;;;5041771;28;20050;-85
2022/09/25 10:20:22;;;;;;;1.20;0.30;;;21.50;87.40;;;;;;5013027;28;20068;-83
2022/09/25 10:22:52;;;;;;;1.98;0.25;;;22.10;85.50;;;;;;5013426;28;20037;-85
2022/09/25 10:25:38;;;;;;;1.45;0.30;;;22.80;81.00;;;;;;5014063;28;20058;-86
2022/09/25 10:28:25;;;;;;;2.10;0.30;;;23.60;77.30;;;;;;5012959;28;20375;-85
2022/09/25 10:30:52;;;;;;;0.82;0.30;;;24.50;71.90;;;;;;5016203;28;20060;-86
2022/09/25 10:33:23;;;;;;;3.20;0.40;;;25.20;71.40;;;;;;4997044;28;20039;-84
2022/09/25 10:35:53;;;;;;;1.95;0.50;;;25.50;67.50;;;;;;5014189;28;20026;-84
2022/09/25 10:38:40;;;;;;;1.35;0.30;;;25.30;64.30;;;;;;5000541;28;20026;-83
2022/09/25 10:41:16;;;;;;;1.83;0.20;;;25.50;61.80;;;;;;5023430;28;20027;-86
2022/09/25 10:43:59;;;;;;;4.47;0.40;;;25.80;60.20;;;;;;5052635;28;20481;-85
2022/09/25 10:52:14;;;;;;;1.70;0.30;;;27.30;58.10;;;;;;5037433;28;20041;-86
2022/09/25 10:54:40;;;;;;;1.55;0.40;;;27.80;57.40;;;;;;5051950;28;20049;-85
2022/09/25 10:57:25;;;;;;;1.10;0.22;;;28.30;56.30;;;;;;5036441;28;20026;-86
2022/09/25 10:59:51;;;;;;;2.75;0.40;;;28.90;53.50;;;;;;5035454;28;20029;-85
2022/09/25 11:02:38;;;;;;;1.23;0.20;;;29.30;53.80;;;;;;5003006;28;20038;-86
2022/09/25 11:05:14;;;;;;;1.63;0.30;;;29.60;52.30;;;;;;5036258;28;20033;-85
2022/09/25 11:07:53;;;;;;;0.82;0.28;;;29.40;52.00;;;;;;5035663;28;20057;-85
2022/09/25 11:10:29;;;;;;;1.65;0.20;;;29.60;49.90;;;;;;5037433;28;20101;-86
2022/09/25 11:12:56;;;;;;;1.98;0.30;;;30.00;49.10;;;;;;5036959;28;20470;-86
2022/09/25 11:15:25;;;;;;;1.80;0.30;;;30.30;48.50;;;;;;5037088;28;20021;-82
2022/09/25 11:17:53;;;;;;;1.27;0.40;;;30.70;47.90;;;;;;5035011;28;20029;-82
2022/09/25 11:20:30;;;;;;;2.25;0.40;;;31.10;46.20;;;;;;5036339;28;20041;-82
2022/09/25 11:23:25;;;;;;;2.40;0.40;;;31.30;45.20;;;;;;5036336;28;20022;-82
2022/09/25 11:26:14;;;;;;;2.53;0.30;;;31.60;44.30;;;;;;5036242;28;20021;-82
2022/09/25 11:28:48;;;;;;;1.35;0.40;;;32.00;44.20;;;;;;5035180;28;20052;-84
2022/09/25 11:31:36;;;;;;;3.20;0.50;;;32.30;44.00;;;;;;5035162;28;20049;-86
2022/09/25 11:34:31;;;;;;;1.98;0.28;;;32.50;42.90;;;;;;5051829;28;20026;-84
2022/09/25 11:37:17;;;;;;;2.20;0.22;;;32.40;42.90;;;;;;5027038;28;20032;-84
2022/09/25 11:43:02;;;;;;;0.93;0.20;;;30.30;41.60;;;;;;5023887;28;20445;-86
2022/09/25 11:45:53;;;;;;;1.65;0.20;;;30.00;42.60;;;;;;5034859;28;20052;-84
2022/09/25 11:49:14;;;;;;;1.30;0.20;;;30.50;42.50;;;;;;5043842;28;20137;-85
2022/09/25 11:51:59;;;;;;;1.70;0.20;;;30.30;41.70;;;;;;5024644;28;20083;-77
2022/09/25 11:54:48;;;;;;;4.18;0.30;;;29.40;41.40;;;;;;5034245;28;20512;-80
2022/09/25 11:57:45;;;;;;;2.45;0.35;;;28.60;41.40;;;;;;5004466;28;20544;-77
2022/09/25 12:00:24;;;;;;;1.83;0.20;;;27.60;41.80;;;;;;5028801;28;20095;-79
2022/09/25 12:03:01;;;;;;;2.72;0.30;;;26.80;42.70;;;;;;5036192;28;20025;-77
2022/09/25 12:06:04;;;;;;;4.72;0.30;;;25.90;43.60;;;;;;5034251;28;20026;-76
2022/09/25 12:09:09;;;;;;;2.70;0.30;;;25.00;45.40;;;;;;5028871;28;20501;-82
2022/09/25 12:12:00;;;;;;;1.45;0.20;;;23.80;48.60;;;;;;5016933;28;20022;-83
2022/09/25 12:14:35;;;;;;;2.20;0.30;;;22.90;49.40;;;;;;5027670;28;20065;-83
2022/09/25 12:17:23;;;;;;;2.28;0.50;;;22.20;50.80;;;;;;5035072;28;20071;-81
2022/09/25 12:19:48;;;;;;;0.95;0.20;;;21.60;52.20;;;;;;5036115;28;20029;-82
2022/09/25 12:22:35;;;;;;;4.55;0.38;;;21.20;52.80;;;;;;5037165;28;20369;-81
2022/09/25 12:25:48;;;;;;;2.40;0.30;;;20.90;53.60;;;;;;5035209;28;20021;-82
2022/09/25 12:28:15;;;;;;;2.30;0.40;;;20.80;54.10;;;;;;5053684;28;20025;-81
2022/09/25 12:30:55;;;;;;;3.90;0.38;;;20.90;54.50;;;;;;5036906;28;20029;-82
2022/09/25 12:33:40;;;;;;;2.50;0.40;;;21.20;54.60;;;;;;5041625;28;20386;-83
2022/09/25 12:36:15;;;;;;;3.22;0.30;;;21.60;54.50;;;;;;5054551;28;20103;-82
2022/09/25 12:39:01;;;;;;;3.53;0.40;;;22.20;55.00;;;;;;5053345;28;20024;-81
2022/09/25 12:41:52;;;;;;;2.22;0.30;;;23.00;54.90;;;;;;5034586;28;20029;-82
2022/09/25 12:44:36;;;;;;;2.60;0.40;;;23.90;53.90;;;;;;5036284;28;20388;-81
2022/09/25 12:47:15;;;;;;;2.22;0.30;;;24.60;52.30;;;;;;5036834;28;20025;-83
2022/09/25 12:50:07;;;;;;;2.28;0.30;;;25.30;50.20;;;;;;5034764;28;20033;-83
2022/09/25 12:52:57;;;;;;;1.02;0.17;;;26.10;49.00;;;;;;5035127;28;20393;-82
2022/09/25 12:55:44;;;;;;;1.63;0.20;;;26.80;47.90;;;;;;5050339;28;20049;-81
2022/09/25 12:58:43;;;;;;;2.95;0.30;;;27.10;46.40;;;;;;5037543;28;20029;-81
2022/09/25 13:01:31;;;;;;;1.42;0.30;;;26.70;45.80;;;;;;5039330;28;20098;-81
2022/09/25 13:04:09;;;;;;;3.80;0.20;;;26.20;45.20;;;;;;5056549;28;20035;-82
2022/09/25 13:06:55;;;;;;;3.30;0.30;;;25.50;45.50;;;;;;5038800;28;20029;-82
2022/09/25 13:09:47;;;;;;;3.00;0.35;;;24.80;46.20;;;;;;5057204;28;20550;-82
2022/09/25 13:12:34;;;;;;;2.28;0.25;;;24.00;47.30;;;;;;5046877;28;20021;-83
2022/09/25 13:15:07;;;;;;;1.50;0.25;;;23.30;48.60;;;;;;5058674;28;20376;-83
2022/09/25 13:17:33;;;;;;;;;;;22.80;49.40;;;;;;5040306;28;20025;-84
2022/09/25 13:20:27;;;;;;;3.65;0.65;;;22.40;50.20;;;;;;5021489;28;19916;-83
2022/09/25 13:23:07;;;;;;;2.63;0.50;;;22.20;51.00;;;;;;5038369;28;20381;-84
2022/09/25 13:25:59;;;;;;;2.95;0.30;;;22.60;52.10;;;;;;5036578;28;20029;-83
2022/09/25 13:28:35;;;;;;;2.08;0.40;;;23.40;52.10;;;;;;5036181;28;20024;-84
2022/09/25 13:31:06;;;;;;;3.03;0.55;;;24.20;51.60;;;;;;5036061;28;20087;-84
2022/09/25 13:33:46;;;;;;;2.85;0.40;;;25.00;50.80;;;;;;5053848;28;20036;-82
2022/09/25 13:36:22;;;;;;;1.10;0.20;;;25.80;49.40;;;;;;5053703;28;20033;-82
2022/09/25 13:41:49;;;;;;;4.47;0.28;;;25.70;47.50;;;;;;5053997;28;20075;-82
2022/09/25 13:44:40;;;;;;;2.83;0.38;;;25.20;47.70;;;;;;5035896;28;20469;-80
2022/09/25 13:47:51;;;;;;;2.50;0.40;;;24.60;48.00;;;;;;5054500;28;20493;-80